Stations météo

réclame
Mon MeteoGroup
Neuhaus am Rennweg, Allemagne (10557): Température de l'air & dewpoint: 12.12.2017 06:00:00 - 18.12.2017 06:00:00 (CET)Neuhaus am Rennweg, Allemagne (10557): Température de l'air 5cm & Température de l'air -5cm: 12.12.2017 06:00:00 - 18.12.2017 06:00:00 (CET)Neuhaus am Rennweg, Allemagne (10557): Température de l'air -20cm & Température de l'air -100cm: 12.12.2017 06:00:00 - 18.12.2017 06:00:00 (CET)Neuhaus am Rennweg, Allemagne (10557): Vitesse du vent & gusts: 12.12.2017 06:00:00 - 18.12.2017 06:00:00 (CET)Neuhaus am Rennweg, Allemagne (10557): Direction du vent: 12.12.2017 06:00:00 - 18.12.2017 06:00:00 (CET)Neuhaus am Rennweg, Allemagne (10557): visibility: 12.12.2017 06:00:00 - 18.12.2017 06:00:00 (CET)Neuhaus am Rennweg, Allemagne (10557): Quantités de précipitations: 12.12.2017 06:00:00 - 18.12.2017 06:00:00 (CET)
Date & Time tt [°C] td [°C] tt 5cm [°C] tt -5cm [°C] tt -20cm [°C] tt -100cm [°C] ff [km/h] ff [knt] fx [km/h] fx [knt] dd vv [km] rr [mm]
18.12.2017 06:00:00 -4,1 -4,5 0,0 0,6 1,1 4,3 14 8 32 17 SSW 1,1 0,0
18.12.2017 05:00:00 -4,1 -4,6 0,0 0,6 1,1 4,3 18 10 33 18 SSW 3,0 0,0
18.12.2017 04:00:00 -3,8 -4,2 0,0 0,6 1,1 4,3 16 9 37 20 SW 5 0,0
18.12.2017 03:00:00 -3,7 -4,1 0,0 0,6 1,1 4,3 16 9 32 18 SW 7 0,0
18.12.2017 02:00:00 -3,6 -4,0 0,0 0,6 1,1 4,3 15 8 29 16 WSW 3,3 0,0
18.12.2017 01:00:00 -3,5 -4,1 0,0 0,6 1,1 4,3 14 7 24 13 WSW 10 0,0
18.12.2017 00:00:00 -3,3 -3,9 0,0 0,6 1,1 4,3 12 6 24 13 W 14 0,0
17.12.2017 23:00:00 -3,1 -3,5 0,0 0,6 1,1 4,3 14 8 27 15 W 10 0,1
17.12.2017 22:00:00 -3,1 -3,5 0,0 0,6 1,1 4,3 10 6 22 12 W 8 0,2
17.12.2017 21:00:00 -3,5 -3,9 0,0 0,6 1,1 4,3 13 7 22 12 WNW 8 0,0
17.12.2017 20:00:00 -3,4 -3,9 0,0 0,6 1,1 4,3 11 6 24 13 WNW 25 0,0
17.12.2017 19:00:00 -3,5 -4,1 0,0 0,6 1,1 4,3 11 6 32 17 NW 27 0,0
17.12.2017 18:00:00 -3,7 -4,7 0,0 0,6 1,1 4,3 18 10 41 22 WNW 39 0,0
17.12.2017 17:00:00 -3,1 -3,7 0,0 0,6 1,1 4,3 13 7 23 13 WNW 32 0,0
17.12.2017 16:00:00 -2,8 -3,6 0,0 0,6 1,1 4,3 12 7 35 19 NW 45 0,2
17.12.2017 15:00:00 -2,6 -3,2 0,0 0,5 1,1 4,3 14 7 26 14 WNW 9 0,0
17.12.2017 14:00:00 -2,5 -3,2 0,0 0,5 1,1 4,3 16 9 37 20 NW 9 0,0
17.12.2017 13:00:00 -2,4 -3,1 0,0 0,5 1,1 4,3 17 9 29 16 WNW 24 0,0
17.12.2017 12:00:00 -2,4 -3,0 0,0 0,5 1,1 4,3 15 8 28 15 WNW 24 0,0
17.12.2017 11:00:00 -2,6 -3,2 0,0 0,5 1,1 4,3 14 8 28 15 W 37 0,0
17.12.2017 10:00:00 -2,9 -3,5 0,0 0,5 1,1 4,3 15 8 27 15 WNW 24 0,0
17.12.2017 09:00:00 -2,9 -3,4 0,0 0,5 1,1 4,3 14 7 29 16 WNW 27 0,0
17.12.2017 08:00:00 -2,8 -3,3 0,0 0,5 1,1 4,3 13 7 41 22 W 4,2 0,3
17.12.2017 07:00:00 -2,8 -3,3 0,0 0,5 1,1 4,3 18 10 41 22 W 4,8 0,1
17.12.2017 06:00:00 -2,8 -3,4 0,0 0,5 1,1 4,3 15 8 31 17 W 12 0,0
17.12.2017 05:00:00 -2,8 -3,4 0,0 0,5 1,1 4,3 19 10 34 18 W 18 0,2
17.12.2017 04:00:00 -2,7 -3,2 0,0 0,5 1,1 4,3 16 8 35 19 W 7 0,1
17.12.2017 03:00:00 -2,6 -3,0 0,0 0,5 1,1 4,3 16 9 35 19 W 2,7 0,4
17.12.2017 02:00:00 -2,5 -2,9 0,0 0,5 1,1 4,3 12 7 35 19 W 0,5 0,4
17.12.2017 01:00:00 -2,5 -3,0 0,0 0,5 1,1 4,3 14 8 29 16 W 8 0,3
17.12.2017 00:00:00 -2,5 -2,9 0,0 0,5 1,1 4,3 12 6 28 15 WSW 9 0,1
16.12.2017 23:00:00 -2,5 -2,8 0,0 0,5 1,1 4,3 12 7 29 16 WNW 7 0,1
16.12.2017 22:00:00 -2,5 -3,3 0,0 0,5 1,1 4,3 18 10 35 19 WNW 28 0,2
16.12.2017 21:00:00 -2,3 -2,6 0,0 0,5 1,1 4,3 16 9 39 21 W 6 0,2
16.12.2017 20:00:00 -2,4 -2,8 0,0 0,5 1,1 4,3 15 8 32 18 W 6 0,7
16.12.2017 19:00:00 -2,3 -2,8 0,0 0,5 1,1 4,3 19 10 35 19 W 9 0,2
16.12.2017 18:00:00 -2,4 -2,8 0,0 0,5 1,1 4,3 14 8 29 15 W 3,4 0,0
16.12.2017 17:00:00 -2,4 -2,8 0,0 0,5 1,1 4,3 13 7 28 15 W 3,3 0,1
16.12.2017 16:00:00 -2,3 -2,6 0,0 0,5 1,1 4,3 14 8 30 16 WNW 8 0,0
16.12.2017 15:00:00 -2,2 -2,6 0,0 0,5 1,1 4,3 15 8 32 17 W 7 0,0
16.12.2017 14:00:00 -2,2 -2,6 0,0 0,5 1,1 4,3 16 9 30 16 WNW 7 0,0
16.12.2017 13:00:00 -2,2 -2,6 0,0 0,5 1,1 4,3 16 8 28 15 W 10 0,0
16.12.2017 12:00:00 -2,2 -2,6 0,0 0,5 1,1 4,3 12 6 24 13 W 11 0,1
16.12.2017 11:00:00 -2,8 -3,1 0,0 0,5 1,1 4,3 10 5 17 9 WNW 4,8 0,1
16.12.2017 10:00:00 -3,3 -3,5 0,0 0,5 1,1 4,3 9 5 16 9 WNW 18 0,0
16.12.2017 09:00:00 -4,1 -4,5 0,0 0,5 1,1 4,3 9 5 13 7 SW 27 0,0
16.12.2017 08:00:00 -2,8 -3,2 0,0 0,5 1,1 4,3 6 3 15 8 NW 35 0,0
16.12.2017 07:00:00 -2,5 -2,7 0,0 0,5 1,1 4,3 8 5 17 9 NNW 21 0,0
16.12.2017 06:00:00 -2,4 -2,4 0,0 0,5 1,1 4,3 6 3 15 8 NW 0,2 0,0
16.12.2017 05:00:00 -2,3 -2,3 0,0 0,5 1,1 4,3 5 3 8 4 WNW 18 0,0
16.12.2017 04:00:00 -2,1 -2,1 0,0 0,5 1,1 4,3 3 1 9 5 WNW 11 0,0
16.12.2017 03:00:00 -2,1 -2,1 0,0 0,5 1,1 4,3 3 1 9 5 NNW 16 0,0
16.12.2017 02:00:00 -2,1 -2,1 0,0 0,5 1,1 4,3 6 3 12 6 NW 1,4 0,0
16.12.2017 01:00:00 -2,0 -2,2 0,0 0,5 1,1 4,3 7 4 13 7 WNW 18 0,0
16.12.2017 00:00:00 -1,8 -1,8 0,0 0,5 1,1 4,3 7 4 16 9 W 0,2 0,0
15.12.2017 23:00:00 -1,8 -1,8 0,0 0,5 1,1 4,3 8 5 16 9 WSW 0,1 0,0
15.12.2017 22:00:00 -1,6 -1,6 0,0 0,5 1,1 4,3 11 6 21 11 W 0,2 0,0
15.12.2017 21:00:00 -1,5 -1,6 0,0 0,5 1,1 4,3 10 6 18 10 SW 2,4 0,6
15.12.2017 20:00:00 -1,3 -1,3 0,0 0,5 1,1 4,3 9 5 19 11 SSW 0,7 0,2
15.12.2017 19:00:00 -1,3 -1,4 0,0 0,5 1,1 4,3 13 7 23 12 WSW 4,0 0,0
15.12.2017 18:00:00 -1,5 -1,5 0,0 0,5 1,1 4,3 12 6 21 11 SW 0,7 0,9
15.12.2017 17:00:00 -1,7 -1,8 0,0 0,6 1,1 4,3 10 5 19 10 S 0,7 0,6
15.12.2017 16:00:00 -1,6 -1,7 0,0 0,6 1,1 4,3 10 6 18 10 S 2,3 0,7
15.12.2017 15:00:00 -1,7 -1,7 0,0 0,6 1,1 4,3 10 5 23 13 SW 3,1 0,0
15.12.2017 14:00:00 -2,0 -2,0 0,0 0,6 1,1 4,3 11 6 35 19 WSW 4,0 0,0
15.12.2017 13:00:00 -2,1 -2,1 0,0 0,6 1,1 4,3 19 10 38 20 WSW 18 0,0
15.12.2017 12:00:00 - - - - - - - - - - - - -
15.12.2017 11:00:00 - - - - - - - - - - - - -
15.12.2017 10:00:00 - - - - - - - - - - - - -
15.12.2017 09:00:00 - - - - - - - - - - - - -
15.12.2017 08:00:00 - - - - - - - - - - - - -
15.12.2017 07:00:00 - - - - - - - - - - - - -
15.12.2017 06:00:00 -1,5 -1,9 0,0 0,6 1,1 4,3 16 9 34 19 SW 1,1 2,4
15.12.2017 05:00:00 -1,0 -1,1 0,0 0,6 1,1 4,3 14 8 34 19 SSW 0,6 0,7
15.12.2017 04:00:00 -1,2 -1,3 0,0 0,6 1,1 4,3 13 7 29 16 S 1,1 1,1
15.12.2017 03:00:00 -1,4 -1,5 0,0 0,6 1,1 4,3 17 9 32 17 S 0,2 0,0
15.12.2017 02:00:00 -1,5 -1,6 0,0 0,6 1,1 4,3 16 8 35 19 SSW 0,5 0,1
15.12.2017 01:00:00 -1,6 -1,7 0,0 0,6 1,1 4,3 11 6 34 19 SW 0,3 0,2
15.12.2017 00:00:00 -1,6 -1,7 0,0 0,6 1,1 4,3 16 8 40 21 SSW 0,4 0,0
14.12.2017 23:00:00 -1,1 -1,3 0,0 0,6 1,1 4,3 15 8 35 19 SSW 1,3 0,1
14.12.2017 22:00:00 -1,3 -1,4 0,0 0,6 1,1 4,3 18 10 41 22 SW 0,4 0,0
14.12.2017 21:00:00 -1,2 -1,3 0,0 0,6 1,1 4,3 24 13 51 28 SW 10 0,4
14.12.2017 20:00:00 -1,2 -1,4 0,0 0,6 1,1 4,3 23 12 41 22 WSW 1,0 1,0
14.12.2017 19:00:00 -1,3 -1,6 0,0 0,6 1,1 4,3 14 8 40 22 W 0,5 2,6
14.12.2017 18:00:00 -1,1 -1,4 0,0 0,6 1,1 4,3 21 11 46 25 SW 1,1 1,1
14.12.2017 17:00:00 -1,2 -1,5 0,0 0,6 1,1 4,3 19 10 49 26 SSW 0,8 1,6
14.12.2017 16:00:00 -1,1 -1,6 0,0 0,6 1,1 4,3 27 14 62 33 SW 2,8 0,5
14.12.2017 15:00:00 -1,0 -1,8 0,0 0,6 1,1 4,3 26 14 53 29 SW 13 0,5
14.12.2017 14:00:00 -1,2 -1,6 0,0 0,6 1,1 4,3 23 12 55 30 SW 3,7 1,0
14.12.2017 13:00:00 -1,5 -2,2 0,0 0,6 1,1 4,3 23 12 55 30 SW 18 0,2
14.12.2017 12:00:00 -2,0 -2,8 0,0 0,6 1,1 4,3 28 15 80 43 WSW 29 0,0
14.12.2017 11:00:00 -2,1 -3,2 0,0 0,6 1,1 4,3 31 17 71 38 WSW 17 0,0
14.12.2017 10:00:00 -2,2 -2,8 0,0 0,6 1,1 4,3 40 21 67 36 WSW 3,0 0,7
14.12.2017 09:00:00 -1,8 -2,2 0,0 0,6 1,1 4,3 34 18 74 40 WSW 1,5 0,4
14.12.2017 08:00:00 -1,2 -1,8 0,0 0,6 1,1 4,3 43 23 79 43 WSW 2,0 1,0
14.12.2017 07:00:00 -0,5 -0,6 0,0 0,6 1,1 4,3 22 12 50 27 SSW 0,3 1,9
14.12.2017 06:00:00 -0,2 -0,3 0,0 0,6 1,1 4,3 22 12 55 30 SW 1,7 0,0
14.12.2017 05:00:00 -0,3 -0,4 0,0 0,6 1,1 4,3 25 13 53 28 WSW 29 0,2
14.12.2017 04:00:00 -0,1 -0,1 0,0 0,6 1,1 4,3 26 14 45 25 SW 0,8 1,2
14.12.2017 03:00:00 -0,9 -0,9 0,0 0,6 1,1 4,3 23 12 50 27 SSW 0,4 0,8
14.12.2017 02:00:00 -1,4 -1,5 0,0 0,6 1,1 4,3 28 15 52 28 SSW 0,4 3,1
14.12.2017 01:00:00 -1,3 -1,5 0,0 0,6 1,1 4,2 24 13 55 30 SSW 0,3 3,5
14.12.2017 00:00:00 -1,4 -1,5 0,0 0,6 1,1 4,2 29 15 61 33 SSW 0,4 0,3
13.12.2017 23:00:00 -2,1 -2,3 0,0 0,6 1,1 4,2 26 14 54 29 SSW 0,6 1,3
13.12.2017 22:00:00 -2,5 -2,7 0,0 0,6 1,1 4,2 24 13 49 27 SSW 0,6 0,4
13.12.2017 21:00:00 -2,6 -2,9 0,0 0,6 1,1 4,2 23 13 51 28 SSW 1,2 1,3
13.12.2017 20:00:00 -2,7 -3,1 0,0 0,6 1,1 4,2 25 14 48 26 SSW 0,2 1,4
13.12.2017 19:00:00 -2,8 -3,2 0,0 0,6 1,1 4,2 27 15 58 32 SSW 0,5 1,8
13.12.2017 18:00:00 -2,8 -3,2 0,0 0,6 1,1 4,2 27 14 58 31 SSW 0,3 1,5
13.12.2017 17:00:00 -2,8 -3,3 0,0 0,5 1,1 4,2 24 13 48 26 S 0,3 0,6
13.12.2017 16:00:00 -2,6 -4,0 0,0 0,5 1,1 4,2 22 12 60 32 SSW 17 0,0
13.12.2017 15:00:00 -2,4 -3,6 0,0 0,5 1,1 4,2 25 14 55 30 SSW 12 0,0
13.12.2017 14:00:00 -2,4 -3,4 0,0 0,5 1,1 4,2 22 12 47 26 S 18 0,0
13.12.2017 13:00:00 -2,9 -3,7 0,0 0,5 1,1 4,2 18 10 46 25 S 22 0,0
13.12.2017 12:00:00 -3,1 -3,7 0,0 0,5 1,1 4,2 19 10 50 27 SSW 16 0,0
13.12.2017 11:00:00 -3,3 -3,8 0,0 0,5 1,1 4,2 23 12 46 25 SSW 10 0,0
13.12.2017 10:00:00 -3,4 -4,0 0,0 0,5 1,1 4,2 24 13 52 28 SSW 9 0,0
13.12.2017 09:00:00 -3,2 -3,6 0,0 0,5 1,1 4,1 24 13 49 27 SW 6 0,0
13.12.2017 08:00:00 -3,4 -3,7 0,0 0,5 1,1 4,1 23 12 47 26 SSW 1,5 0,0
13.12.2017 07:00:00 -3,5 -3,8 0,0 0,5 1,1 4,1 19 10 44 24 SW 0,2 0,0
13.12.2017 06:00:00 -3,8 -4,3 0,0 0,5 1,1 4,1 22 12 46 25 SW 3,2 0,0
13.12.2017 05:00:00 -4,0 -4,6 0,0 0,5 1,1 4,1 22 12 41 22 SW 15 0,0
13.12.2017 04:00:00 -3,9 -4,2 0,0 0,5 1,1 4,1 22 12 44 24 SW 0,5 0,0
13.12.2017 03:00:00 -3,7 -4,1 0,0 0,5 1,1 4,1 22 12 42 23 WSW 6 0,0
13.12.2017 02:00:00 -3,6 -4,1 0,0 0,5 1,1 4,1 19 10 35 19 SW 6 0,0
13.12.2017 01:00:00 -3,5 -4,0 0,0 0,5 1,1 4,1 16 9 37 20 SW 9 0,0
13.12.2017 00:00:00 -3,2 -3,8 0,0 0,5 1,1 4,0 16 9 31 17 SW 14 0,0
12.12.2017 23:00:00 -3,0 -3,6 0,0 0,5 1,1 4,0 18 10 35 19 WSW 7 0,0
12.12.2017 22:00:00 -2,7 -3,1 0,0 0,5 1,1 4,0 16 8 37 20 WSW 6 0,1
12.12.2017 21:00:00 -2,4 -2,8 0,0 0,5 1,1 4,0 19 11 36 19 WSW 3,7 0,0
12.12.2017 20:00:00 -2,3 -2,6 0,0 0,5 1,1 4,0 16 9 39 21 WSW 6 0,0
12.12.2017 19:00:00 -2,3 -2,6 0,0 0,5 1,1 4,0 18 10 46 25 WSW 6 0,1
12.12.2017 18:00:00 -2,2 -2,5 0,0 0,5 1,1 4,0 21 12 48 26 WSW 1,4 0,9
12.12.2017 17:00:00 -2,4 -2,8 0,0 0,5 1,1 3,9 20 11 49 26 WSW 1,4 0,1
12.12.2017 16:00:00 -2,5 -3,3 0,0 0,5 1,1 3,9 23 12 44 24 SW 7 0,0
12.12.2017 15:00:00 -2,6 -3,3 0,0 0,5 1,1 3,9 22 12 40 22 WSW 11 0,5
12.12.2017 14:00:00 -2,6 -3,4 0,0 0,5 1,2 3,9 21 11 43 23 SW 2,2 0,8
12.12.2017 13:00:00 -2,7 -3,4 0,0 0,6 1,2 3,9 22 12 57 31 WSW 2,6 0,1
12.12.2017 12:00:00 -2,6 -3,5 0,0 0,6 1,2 3,9 23 12 58 31 WSW 17 0,1
12.12.2017 11:00:00 -2,5 -3,0 0,0 0,6 1,2 3,8 25 14 53 28 WSW 5 0,0
12.12.2017 10:00:00 -2,6 -3,2 0,0 0,6 1,2 3,8 31 17 60 32 WSW 5 0,0
12.12.2017 09:00:00 -2,7 -3,1 0,0 0,6 1,2 3,8 31 17 63 34 WSW 8 0,7
12.12.2017 08:00:00 -2,2 -2,8 0,0 0,6 1,2 3,8 35 19 76 41 WSW 0,6 0,0
12.12.2017 07:00:00 -1,6 -2,1 0,0 0,6 1,2 3,8 51 28 73 39 SW 5 1,3
12.12.2017 06:00:00 -0,3 -0,7 0,0 0,6 1,2 3,8 24 13 64 34 SSW 3,8 0,0

tt = Température de l'air
td = dewpoint
tt 5cm = Température de l'air 5cm
tt -5cm = Température de l'air -5cm
tt -20cm = Température de l'air -20cm
tt -100cm = Température de l'air -100cm
ff = Vitesse du vent
fx = gusts
dd = Direction du vent
vv = visibility
rr = Quantités de précipitations

stations d'obs. à proximité